Time;durP1;ratioP1;P1;durP2;ratioP2;P2;SDS_P1;SDS_P2;PMS_P1;PMS_P2;Temp;Humidity;BMP_temperature;BMP_pressure;BME280_temperature;BME280_humidity;BME280_pressure;Samples;Min_cycle;Max_cycle;Signal;HPM_P1;HPM_P2
2022/02/05 00:02:16;;;;;;;0.83;0.60;;;4.40;99.90;;;;;;5074072;28;20474;-38
2022/02/05 00:04:44;;;;;;;0.80;0.50;;;4.30;99.90;;;;;;5074673;28;20458;-37
2022/02/05 00:07:13;;;;;;;1.00;0.60;;;4.30;99.90;;;;;;5074390;28;20453;-39
2022/02/05 00:09:57;;;;;;;2.30;1.00;;;4.20;99.90;;;;;;5074585;28;20439;-40
2022/02/05 00:12:39;;;;;;;0.80;0.57;;;4.20;99.90;;;;;;5074264;28;20455;-38
2022/02/05 00:15:27;;;;;;;1.00;0.57;;;4.20;99.90;;;;;;5074311;28;20494;-39
2022/02/05 00:39:59;;;;;;;1.10;0.80;;;4.20;99.90;;;;;;5074066;28;20495;-39
2022/02/05 00:42:31;;;;;;;3.13;1.17;;;4.20;99.90;;;;;;5073828;28;20447;-38
2022/02/05 00:44:57;;;;;;;1.03;0.70;;;4.20;99.90;;;;;;5074117;28;20868;-40
2022/02/05 00:47:34;;;;;;;1.20;1.00;;;4.20;99.90;;;;;;5074117;28;20474;-41
2022/02/05 00:50:03;;;;;;;1.10;0.83;;;4.30;99.90;;;;;;5074257;28;20457;-40
2022/02/05 00:52:30;;;;;;;1.73;0.90;;;4.20;99.90;;;;;;5074080;28;20446;-39
2022/02/05 00:55:05;;;;;;;3.20;1.03;;;4.20;99.90;;;;;;5073628;28;20967;-39
2022/02/05 00:57:45;;;;;;;1.53;1.07;;;4.20;99.90;;;;;;5073795;28;20500;-38
2022/02/05 01:00:17;;;;;;;2.37;1.43;;;4.20;99.90;;;;;;5073683;28;20504;-38
2022/02/05 01:02:44;;;;;;;1.87;1.50;;;4.20;99.90;;;;;;5073690;28;20485;-41
2022/02/05 01:05:11;;;;;;;1.10;0.70;;;4.20;99.90;;;;;;5075291;28;20450;-40
2022/02/05 01:07:38;;;;;;;2.10;1.90;;;4.20;99.90;;;;;;5077603;28;20474;-40
2022/02/05 01:10:07;;;;;;;2.23;1.27;;;4.30;99.90;;;;;;5077704;28;20454;-37
2022/02/05 01:12:36;;;;;;;1.80;1.40;;;4.30;99.90;;;;;;5077747;28;20908;-41
2022/02/05 01:15:04;;;;;;;2.33;0.90;;;4.40;99.90;;;;;;5077656;28;20590;-38
2022/02/05 01:17:36;;;;;;;1.60;1.40;;;4.40;99.90;;;;;;5077744;28;20537;-40
2022/02/05 01:20:38;;;;;;;2.13;1.10;;;4.30;99.90;;;;;;5077525;28;20451;-41
2022/02/05 01:23:09;;;;;;;1.30;1.10;;;4.40;99.90;;;;;;5077284;28;20828;-39
2022/02/05 01:25:41;;;;;;;1.40;1.30;;;4.30;99.90;;;;;;5077605;28;20487;-39
2022/02/05 01:28:12;;;;;;;1.70;1.27;;;4.40;99.90;;;;;;5077399;28;20473;-39
2022/02/05 01:30:43;;;;;;;1.57;1.13;;;4.40;99.90;;;;;;5077411;28;20439;-40
2022/02/05 01:33:25;;;;;;;1.10;1.00;;;4.50;99.90;;;;;;5077557;28;20529;-39
2022/02/05 01:36:09;;;;;;;2.20;1.57;;;4.50;99.90;;;;;;5077496;28;20485;-39
2022/02/05 01:52:24;;;;;;;5.90;1.60;;;4.50;99.90;;;;;;5077057;28;20402;-39
2022/02/05 01:55:07;;;;;;;1.40;1.30;;;4.50;99.90;;;;;;5076836;28;20466;-39
2022/02/05 01:57:51;;;;;;;1.40;1.13;;;4.50;99.90;;;;;;5076376;28;20442;-39
2022/02/05 02:05:56;;;;;;;1.30;1.20;;;4.60;99.90;;;;;;5076606;28;20419;-40
2022/02/05 02:11:26;;;;;;;3.47;1.63;;;4.60;99.90;;;;;;5076423;28;20402;-38
2022/02/05 02:14:23;;;;;;;7.30;1.77;;;4.60;99.90;;;;;;5076412;28;20561;-38
2022/02/05 02:17:20;;;;;;;0.90;0.70;;;4.70;99.90;;;;;;5075835;28;20825;-41
2022/02/05 02:20:05;;;;;;;1.77;1.10;;;4.70;99.90;;;;;;5075969;28;20467;-35
2022/02/05 02:22:40;;;;;;;3.50;1.10;;;4.60;99.90;;;;;;5076195;28;20473;-39
2022/02/05 02:25:16;;;;;;;1.67;1.30;;;4.60;99.90;;;;;;5076064;28;20430;-37
2022/02/05 02:27:49;;;;;;;1.40;0.87;;;4.50;99.90;;;;;;5076450;28;20488;-39
2022/02/05 02:30:20;;;;;;;1.17;0.93;;;4.50;99.90;;;;;;5075944;28;20435;-39
2022/02/05 02:32:51;;;;;;;1.80;0.90;;;4.60;99.90;;;;;;5076191;28;20435;-38
2022/02/05 02:35:22;;;;;;;3.03;1.20;;;4.50;99.90;;;;;;5076160;28;20467;-38
2022/02/05 02:37:54;;;;;;;1.73;1.27;;;4.50;99.90;;;;;;5076945;28;20411;-37
2022/02/05 02:40:28;;;;;;;1.93;1.00;;;4.50;99.90;;;;;;5076198;28;20471;-37
2022/02/05 02:43:01;;;;;;;1.57;1.03;;;4.50;99.90;;;;;;5076323;28;20463;-37
2022/02/05 02:45:28;;;;;;;3.63;1.20;;;4.40;99.90;;;;;;5076524;28;20454;-38
2022/02/05 02:47:55;;;;;;;1.50;0.80;;;4.50;99.90;;;;;;5076133;28;20423;-36
2022/02/05 02:50:33;;;;;;;1.40;1.00;;;4.50;99.90;;;;;;5076137;28;20455;-36
2022/02/05 02:58:32;;;;;;;2.43;1.40;;;4.50;99.90;;;;;;5075637;28;20611;-39
2022/02/05 03:01:00;;;;;;;6.00;1.67;;;4.50;99.90;;;;;;5075597;28;20498;-38
2022/02/05 03:03:27;;;;;;;7.60;1.70;;;4.60;99.90;;;;;;5075671;28;20518;-37
2022/02/05 03:05:54;;;;;;;1.30;1.20;;;4.60;99.90;;;;;;5075802;28;20451;-38
2022/02/05 03:08:22;;;;;;;8.23;1.50;;;4.60;99.90;;;;;;5075901;28;20449;-36
2022/02/05 03:10:49;;;;;;;1.80;1.30;;;4.70;99.90;;;;;;5075404;28;20974;-38
2022/02/05 03:13:15;;;;;;;2.20;1.33;;;4.70;99.90;;;;;;5075412;28;20451;-39
2022/02/05 03:15:43;;;;;;;3.97;2.83;;;4.70;99.90;;;;;;5075377;28;20474;-39
2022/02/05 03:18:13;;;;;;;3.13;1.43;;;4.80;99.90;;;;;;5075587;28;20506;-38
2022/02/05 03:20:40;;;;;;;4.57;1.93;;;4.80;99.90;;;;;;5075503;28;20435;-36
2022/02/05 03:23:07;;;;;;;3.83;1.30;;;4.80;99.90;;;;;;5075120;28;20467;-38
2022/02/05 03:25:35;;;;;;;4.17;1.13;;;4.80;99.90;;;;;;5075383;28;20458;-37
2022/02/05 03:28:03;;;;;;;5.67;1.50;;;4.90;99.90;;;;;;5074449;28;20458;-36
2022/02/05 03:30:29;;;;;;;5.60;1.07;;;4.90;99.90;;;;;;5075323;28;20443;-40
2022/02/05 03:32:58;;;;;;;3.30;1.30;;;5.00;99.90;;;;;;5075243;28;20450;-38
2022/02/05 03:35:25;;;;;;;7.70;2.10;;;5.00;99.90;;;;;;5075017;28;20518;-43
2022/02/05 03:37:52;;;;;;;7.33;1.70;;;5.00;99.90;;;;;;5075092;28;20462;-41
2022/02/05 03:40:18;;;;;;;4.33;1.50;;;4.90;99.90;;;;;;5075073;28;20466;-39
2022/02/05 03:42:46;;;;;;;1.13;0.87;;;4.80;99.90;;;;;;5075002;28;20443;-38
2022/02/05 03:45:14;;;;;;;1.77;1.33;;;4.80;99.90;;;;;;5075054;28;20500;-37
2022/02/05 03:47:41;;;;;;;1.70;1.30;;;4.70;99.90;;;;;;5074990;28;20482;-38
2022/02/05 03:50:09;;;;;;;4.17;1.83;;;4.70;99.90;;;;;;5074716;28;20458;-38
2022/02/05 03:52:37;;;;;;;2.10;1.40;;;4.70;99.90;;;;;;5074891;28;20505;-38
2022/02/05 03:55:05;;;;;;;3.07;1.50;;;4.70;99.90;;;;;;5074616;28;21002;-39
2022/02/05 03:57:31;;;;;;;2.87;1.67;;;4.70;99.90;;;;;;5074926;28;20443;-39
2022/02/05 04:00:02;;;;;;;5.70;1.73;;;4.70;99.90;;;;;;5074902;28;20454;-40
2022/02/05 04:02:29;;;;;;;2.27;1.50;;;4.70;99.90;;;;;;5074637;28;20555;-38
2022/02/05 04:04:56;;;;;;;1.90;1.20;;;4.60;99.90;;;;;;5074806;28;20540;-40
2022/02/05 04:07:24;;;;;;;7.07;1.90;;;4.60;99.90;;;;;;5074755;28;20451;-40
2022/02/05 04:09:57;;;;;;;3.97;1.53;;;4.50;99.90;;;;;;5074674;28;20458;-40
2022/02/05 04:17:54;;;;;;;6.30;2.20;;;4.50;99.90;;;;;;5074762;28;20454;-38
2022/02/05 04:20:20;;;;;;;7.17;2.07;;;4.50;99.90;;;;;;5074632;28;20463;-41
2022/02/05 04:22:47;;;;;;;1.40;1.23;;;4.50;99.90;;;;;;5074333;28;20531;-39
2022/02/05 04:25:14;;;;;;;2.10;1.10;;;4.60;99.90;;;;;;5074711;28;20492;-38
2022/02/05 04:27:40;;;;;;;2.23;1.53;;;4.50;99.90;;;;;;5074908;28;20435;-38
2022/02/05 04:30:10;;;;;;;4.93;1.47;;;4.60;99.90;;;;;;5074631;28;20459;-44
2022/02/05 04:32:37;;;;;;;2.10;1.90;;;4.60;99.90;;;;;;5074442;28;20445;-38
2022/02/05 04:35:04;;;;;;;1.70;1.27;;;4.60;99.90;;;;;;5074493;28;20504;-39
2022/02/05 04:37:32;;;;;;;5.53;1.83;;;4.70;99.90;;;;;;5074444;28;20505;-40
2022/02/05 04:40:09;;;;;;;3.03;1.30;;;4.70;99.90;;;;;;5077222;28;20469;-44
2022/02/05 04:42:45;;;;;;;1.43;1.23;;;4.70;99.90;;;;;;5078504;28;20482;-37
2022/02/05 04:45:39;;;;;;;7.83;2.00;;;4.70;99.90;;;;;;5078609;28;20930;-38
2022/02/05 04:48:38;;;;;;;5.13;2.30;;;4.70;99.90;;;;;;5078351;28;20569;-39
2022/02/05 04:51:30;;;;;;;1.80;1.30;;;4.80;99.90;;;;;;5078131;28;20437;-39
2022/02/05 04:54:11;;;;;;;4.23;1.20;;;4.80;99.90;;;;;;5078187;28;20923;-38
2022/02/05 04:56:48;;;;;;;4.40;2.50;;;4.70;99.90;;;;;;5078349;28;20470;-38
2022/02/05 04:59:47;;;;;;;4.13;2.57;;;4.70;99.90;;;;;;5078187;28;20652;-37
2022/02/05 05:02:36;;;;;;;10.63;1.87;;;4.80;99.90;;;;;;5077864;28;20483;-40
2022/02/05 05:05:17;;;;;;;8.57;2.10;;;4.80;99.90;;;;;;5077976;28;20475;-37
2022/02/05 05:08:08;;;;;;;2.53;1.73;;;4.90;99.90;;;;;;5077795;28;20954;-40
2022/02/05 05:10:45;;;;;;;9.47;2.07;;;4.90;99.90;;;;;;5078049;28;20454;-40
2022/02/05 05:13:16;;;;;;;6.73;2.80;;;4.90;99.90;;;;;;5077889;28;20939;-39
2022/02/05 05:21:10;;;;;;;4.30;2.17;;;5.00;99.90;;;;;;5077924;28;20417;-42
2022/02/05 05:23:36;;;;;;;4.37;2.20;;;5.00;99.90;;;;;;5077408;28;20973;-38
2022/02/05 05:26:04;;;;;;;4.10;0.90;;;5.00;99.90;;;;;;5077728;28;20431;-37
2022/02/05 05:28:30;;;;;;;17.93;2.47;;;5.00;99.90;;;;;;5077517;28;20776;-38
2022/02/05 05:30:57;;;;;;;4.53;2.60;;;5.00;99.90;;;;;;5077820;28;20438;-38
2022/02/05 05:33:25;;;;;;;2.97;1.30;;;5.00;99.90;;;;;;5077486;28;20454;-41
2022/02/05 05:35:52;;;;;;;2.07;1.70;;;5.00;99.90;;;;;;5077332;28;20544;-40
2022/02/05 05:38:18;;;;;;;4.80;2.10;;;5.00;99.90;;;;;;5077283;28;20489;-39
2022/02/05 05:40:45;;;;;;;2.30;1.90;;;5.00;99.90;;;;;;5077517;28;20475;-38
2022/02/05 05:43:24;;;;;;;2.63;1.47;;;5.00;99.90;;;;;;5077661;28;20471;-41
2022/02/05 05:46:13;;;;;;;2.17;1.57;;;4.90;99.90;;;;;;5077460;28;20471;-39
2022/02/05 05:48:55;;;;;;;4.97;1.60;;;4.90;99.90;;;;;;5077309;28;20540;-39
2022/02/05 05:51:22;;;;;;;12.43;2.50;;;4.90;99.90;;;;;;5076455;28;20540;-36
2022/02/05 05:53:49;;;;;;;4.60;2.00;;;4.80;99.90;;;;;;5076853;28;20964;-39
2022/02/05 05:56:18;;;;;;;2.97;1.60;;;4.80;99.90;;;;;;5077179;28;20501;-38
2022/02/05 05:58:44;;;;;;;2.60;1.87;;;4.80;99.90;;;;;;5077141;28;20458;-38
2022/02/05 06:01:11;;;;;;;5.37;1.90;;;4.90;99.90;;;;;;5076960;28;20482;-39
2022/02/05 06:03:38;;;;;;;4.67;2.03;;;4.80;99.90;;;;;;5076748;28;20447;-38
2022/02/05 06:06:06;;;;;;;6.50;2.90;;;4.80;99.90;;;;;;5076887;28;20469;-38
2022/02/05 06:08:33;;;;;;;2.50;2.00;;;4.90;99.90;;;;;;5077246;28;20455;-37
2022/02/05 06:11:00;;;;;;;2.40;1.70;;;5.00;99.90;;;;;;5076815;28;20447;-38
2022/02/05 06:13:27;;;;;;;2.90;1.10;;;4.90;99.90;;;;;;5076848;28;20452;-41
2022/02/05 06:15:56;;;;;;;2.27;2.03;;;5.00;99.90;;;;;;5076977;28;20548;-47
2022/02/05 06:18:22;;;;;;;3.83;2.40;;;4.90;99.90;;;;;;5076744;28;20561;-37
2022/02/05 06:20:49;;;;;;;5.60;2.20;;;4.80;99.90;;;;;;5076688;28;20896;-38
2022/02/05 06:23:17;;;;;;;2.07;1.70;;;4.80;99.90;;;;;;5076497;28;20459;-61
2022/02/05 06:25:44;;;;;;;4.80;2.57;;;4.80;99.90;;;;;;5124780;22;20919;-60
2022/02/05 06:28:14;;;;;;;6.20;2.50;;;4.70;99.90;;;;;;5076097;28;21144;-60
2022/02/05 06:30:41;;;;;;;1.80;1.50;;;4.70;99.90;;;;;;5075562;28;20463;-58
2022/02/05 06:33:07;;;;;;;6.00;2.60;;;4.70;99.90;;;;;;5076280;28;20457;-59
2022/02/05 06:35:34;;;;;;;1.67;1.57;;;4.80;99.90;;;;;;5076261;28;20495;-58
2022/02/05 06:38:01;;;;;;;2.90;1.80;;;4.80;99.90;;;;;;5076584;28;20511;-63
2022/02/05 06:40:29;;;;;;;3.47;2.20;;;4.70;99.90;;;;;;5077064;28;20481;-63
2022/02/05 06:42:56;;;;;;;4.90;2.20;;;4.80;99.90;;;;;;5077274;28;20470;-55
2022/02/05 06:45:23;;;;;;;6.03;1.83;;;4.80;99.90;;;;;;5076779;28;20572;-61
2022/02/05 06:47:49;;;;;;;3.23;2.07;;;4.80;99.90;;;;;;5076000;28;20501;-61
2022/02/05 06:50:17;;;;;;;12.40;1.73;;;4.70;99.90;;;;;;5076188;28;20469;-59
2022/02/05 06:52:45;;;;;;;6.97;2.20;;;4.60;99.90;;;;;;5076298;28;20470;-62
2022/02/05 06:55:12;;;;;;;7.53;1.80;;;4.50;99.90;;;;;;5076010;28;20533;-57
2022/02/05 06:57:41;;;;;;;4.20;1.93;;;4.50;99.90;;;;;;5075873;28;20492;-63
2022/02/05 07:00:10;;;;;;;4.73;2.33;;;4.50;99.90;;;;;;5076026;28;20819;-57
2022/02/05 07:02:36;;;;;;;1.83;1.43;;;4.50;99.90;;;;;;5075919;28;20566;-60
2022/02/05 07:05:04;;;;;;;5.67;2.47;;;4.40;99.90;;;;;;5075926;28;20443;-57
2022/02/05 07:07:30;;;;;;;2.27;2.07;;;4.40;99.90;;;;;;5075724;28;20466;-62
2022/02/05 07:09:57;;;;;;;1.57;0.83;;;4.30;99.90;;;;;;5075884;28;20534;-60
2022/02/05 07:12:24;;;;;;;5.50;1.83;;;4.20;99.90;;;;;;5075574;28;20458;-60
2022/02/05 07:15:01;;;;;;;13.37;1.90;;;4.00;99.90;;;;;;5075762;28;20439;-59
2022/02/05 07:17:37;;;;;;;2.20;1.20;;;4.00;99.90;;;;;;5076005;28;20467;-58
2022/02/05 07:20:13;;;;;;;2.30;1.17;;;3.80;99.90;;;;;;5075783;28;20939;-53
2022/02/05 07:22:53;;;;;;;1.43;1.20;;;3.70;99.90;;;;;;5092844;28;20446;-53
2022/02/05 07:30:52;;;;;;;2.17;1.20;;;3.30;99.90;;;;;;5083320;28;20478;-56
2022/02/05 07:33:21;;;;;;;1.57;0.93;;;3.20;99.90;;;;;;5095065;28;20774;-59
2022/02/05 07:35:50;;;;;;;1.77;0.90;;;3.10;99.90;;;;;;5094825;28;20439;-59
2022/02/05 07:38:16;;;;;;;1.23;1.13;;;3.00;99.90;;;;;;5094602;28;20450;-60
2022/02/05 07:40:43;;;;;;;1.90;1.23;;;3.00;99.90;;;;;;5094825;28;20458;-53
2022/02/05 07:43:13;;;;;;;2.00;1.17;;;3.00;99.90;;;;;;5095160;28;20482;-58
2022/02/05 07:45:40;;;;;;;2.20;1.10;;;2.90;99.90;;;;;;5095382;28;20447;-52
2022/02/05 07:48:08;;;;;;;0.97;0.73;;;2.90;99.90;;;;;;5094959;28;20470;-60
2022/02/05 07:50:35;;;;;;;1.73;0.70;;;2.90;99.90;;;;;;5094574;28;20455;-56
2022/02/05 07:53:02;;;;;;;1.63;0.90;;;3.00;99.90;;;;;;5095294;28;20446;-58
2022/02/05 07:55:28;;;;;;;2.40;1.00;;;3.00;99.90;;;;;;5094347;28;20505;-58
2022/02/05 07:57:55;;;;;;;1.33;0.80;;;3.00;99.90;;;;;;5094328;28;20475;-59
2022/02/05 08:00:22;;;;;;;2.07;1.30;;;3.10;99.90;;;;;;5094880;28;20450;-53
2022/02/05 08:02:49;;;;;;;2.90;1.03;;;3.10;99.90;;;;;;5094823;28;20439;-58
2022/02/05 08:05:20;;;;;;;1.93;1.30;;;3.10;99.90;;;;;;5094967;28;20509;-58
2022/02/05 08:07:46;;;;;;;5.70;1.30;;;3.10;99.90;;;;;;5095112;28;20463;-59
2022/02/05 08:10:14;;;;;;;2.53;1.10;;;3.10;99.90;;;;;;5095596;28;20439;-54
2022/02/05 08:12:48;;;;;;;1.63;1.27;;;3.20;99.90;;;;;;5095155;28;20450;-64
2022/02/05 08:15:17;;;;;;;2.63;1.73;;;3.20;99.90;;;;;;5095102;28;20459;-58
2022/02/05 08:17:44;;;;;;;2.83;1.43;;;3.20;99.90;;;;;;5095994;28;20493;-57
2022/02/05 08:20:13;;;;;;;2.40;0.97;;;3.20;99.90;;;;;;5091777;28;20476;-54
2022/02/05 08:22:41;;;;;;;8.73;2.67;;;3.30;99.90;;;;;;5091107;28;20454;-57
2022/02/05 08:25:08;;;;;;;5.80;1.50;;;3.40;99.90;;;;;;5092534;28;20493;-60
2022/02/05 08:27:36;;;;;;;2.27;1.10;;;3.40;99.90;;;;;;5087446;28;20419;-57
2022/02/05 08:30:07;;;;;;;1.40;0.80;;;3.40;99.90;;;;;;5094555;28;20956;-58
2022/02/05 08:32:34;;;;;;;1.97;1.40;;;3.50;99.90;;;;;;5093004;28;20454;-61
2022/02/05 08:35:01;;;;;;;2.77;1.50;;;3.60;99.90;;;;;;5079929;28;20441;-54
2022/02/05 08:37:29;;;;;;;2.60;0.97;;;3.70;99.90;;;;;;5096467;28;20546;-56
2022/02/05 08:39:58;;;;;;;2.67;2.20;;;3.80;99.90;;;;;;5081690;28;20474;-55
2022/02/05 08:42:25;;;;;;;3.57;1.30;;;3.90;99.90;;;;;;5075950;28;20467;-56
2022/02/05 08:44:52;;;;;;;2.73;0.83;;;4.00;99.90;;;;;;5077711;28;20766;-53
2022/02/05 08:47:18;;;;;;;6.83;2.03;;;4.20;99.90;;;;;;5088922;28;20460;-58
2022/02/05 08:49:45;;;;;;;2.40;1.00;;;4.30;99.90;;;;;;5075829;28;20451;-57
2022/02/05 08:52:12;;;;;;;1.83;1.00;;;4.40;99.90;;;;;;5074546;28;20468;-58
2022/02/05 08:54:41;;;;;;;0.80;0.60;;;4.50;99.90;;;;;;5092162;28;20469;-58
2022/02/05 08:57:10;;;;;;;3.90;1.43;;;4.60;99.90;;;;;;5074967;28;20507;-57
2022/02/05 08:59:46;;;;;;;4.73;0.87;;;4.60;99.90;;;;;;5075341;28;20443;-59
2022/02/05 09:02:19;;;;;;;2.50;0.60;;;4.60;99.90;;;;;;5074587;28;20495;-60
2022/02/05 09:04:53;;;;;;;1.13;0.70;;;4.60;99.90;;;;;;5079868;28;20440;-60
2022/02/05 09:07:20;;;;;;;2.27;1.13;;;4.60;99.90;;;;;;5095433;28;20482;-57
2022/02/05 09:10:03;;;;;;;5.80;1.80;;;4.60;99.90;;;;;;5085731;28;20466;-60
2022/02/05 09:12:55;;;;;;;2.60;0.80;;;4.50;99.90;;;;;;5079853;28;20491;-56
2022/02/05 09:15:22;;;;;;;1.27;1.10;;;4.50;99.90;;;;;;5086072;28;20434;-56
2022/02/05 09:17:50;;;;;;;5.13;1.23;;;4.60;99.90;;;;;;5091359;28;20490;-59
2022/02/05 09:20:21;;;;;;;1.87;1.27;;;4.60;99.90;;;;;;5081530;28;20436;-59
2022/02/05 09:22:48;;;;;;;3.80;1.00;;;4.70;99.90;;;;;;5086639;28;20454;-59
2022/02/05 09:25:15;;;;;;;1.00;0.80;;;4.80;99.90;;;;;;5078330;28;20420;-56
2022/02/05 09:27:45;;;;;;;1.30;0.77;;;4.90;99.90;;;;;;5078471;28;20466;-56
2022/02/05 09:30:15;;;;;;;3.43;1.30;;;4.90;99.90;;;;;;5095401;28;20466;-57
2022/02/05 09:32:42;;;;;;;1.27;0.87;;;5.00;99.90;;;;;;5081040;28;20519;-52
2022/02/05 09:35:10;;;;;;;2.70;1.10;;;5.10;99.90;;;;;;5096357;28;20425;-58
2022/02/05 09:37:37;;;;;;;3.83;1.30;;;5.00;99.90;;;;;;5090302;28;20487;-57
2022/02/05 09:40:05;;;;;;;2.77;2.00;;;5.10;99.90;;;;;;5090523;28;20443;-56
2022/02/05 09:42:32;;;;;;;1.20;0.90;;;5.10;99.90;;;;;;5091311;28;20468;-51
2022/02/05 09:45:03;;;;;;;1.53;1.13;;;5.20;99.90;;;;;;5097038;28;20828;-37
2022/02/05 09:47:30;;;;;;;1.30;1.17;;;5.30;99.90;;;;;;5097064;28;20414;-35
2022/02/05 09:50:00;;;;;;;2.60;1.13;;;5.40;99.90;;;;;;5097238;28;20423;-42
2022/02/05 09:52:27;;;;;;;3.93;0.90;;;5.40;99.90;;;;;;5097425;28;20826;-38
2022/02/05 09:54:54;;;;;;;3.03;1.37;;;5.50;99.90;;;;;;5096572;28;20469;-38
2022/02/05 09:57:21;;;;;;;3.47;1.13;;;6.00;99.90;;;;;;5096463;28;20515;-39
2022/02/05 09:59:54;;;;;;;3.80;1.43;;;6.10;99.90;;;;;;5096474;28;20486;-39
2022/02/05 10:02:25;;;;;;;1.30;1.10;;;6.10;99.90;;;;;;5096405;28;20462;-37
2022/02/05 10:04:54;;;;;;;4.00;1.20;;;5.80;99.90;;;;;;5096744;28;20479;-37
2022/02/05 10:07:21;;;;;;;1.73;0.87;;;5.50;99.90;;;;;;5096695;28;20979;-36
2022/02/05 10:09:54;;;;;;;3.40;1.10;;;5.40;99.90;;;;;;5097328;28;20438;-37
2022/02/05 10:12:21;;;;;;;4.67;1.30;;;5.40;99.90;;;;;;5097110;28;20441;-36
2022/02/05 10:14:51;;;;;;;6.93;1.47;;;5.30;99.90;;;;;;5097096;28;20443;-37
2022/02/05 10:17:19;;;;;;;9.67;1.60;;;5.30;99.90;;;;;;5097174;28;20459;-36
2022/02/05 10:19:49;;;;;;;1.30;0.80;;;5.40;99.90;;;;;;5096865;28;20938;-39
2022/02/05 10:22:16;;;;;;;11.07;1.90;;;5.40;99.90;;;;;;5097718;28;20481;-37
2022/02/05 10:24:49;;;;;;;4.90;1.90;;;5.40;99.90;;;;;;5097285;28;20443;-38
2022/02/05 10:27:27;;;;;;;1.53;1.00;;;5.30;99.90;;;;;;5096580;28;20474;-39
2022/02/05 10:30:05;;;;;;;3.83;1.67;;;5.40;99.90;;;;;;5097216;28;20436;-39
2022/02/05 10:32:32;;;;;;;1.40;1.30;;;5.50;99.90;;;;;;5097001;28;20475;-37
2022/02/05 10:35:05;;;;;;;2.40;1.10;;;5.50;99.90;;;;;;5096470;28;20439;-38
2022/02/05 10:37:43;;;;;;;1.57;1.30;;;5.50;99.90;;;;;;5096020;28;20469;-39
2022/02/05 10:40:13;;;;;;;5.13;2.23;;;5.50;99.90;;;;;;5096754;28;20424;-40
2022/02/05 10:43:03;;;;;;;3.40;1.33;;;5.80;99.90;;;;;;5096056;28;20475;-40
2022/02/05 10:45:41;;;;;;;1.50;1.27;;;6.20;99.90;;;;;;5095830;28;20531;-39
2022/02/05 10:48:09;;;;;;;8.77;1.70;;;6.60;99.90;;;;;;5095012;28;20466;-37
2022/02/05 10:50:37;;;;;;;2.10;1.27;;;7.10;99.90;;;;;;5093345;28;20493;-41
2022/02/05 10:53:10;;;;;;;2.60;1.57;;;7.30;99.90;;;;;;5093159;28;20441;-36
2022/02/05 10:55:44;;;;;;;6.97;2.03;;;7.40;99.90;;;;;;5093627;28;20493;-39
2022/02/05 10:58:27;;;;;;;2.57;1.90;;;7.20;99.90;;;;;;5094491;28;20471;-40
2022/02/05 11:06:26;;;;;;;4.43;1.30;;;7.00;99.90;;;;;;5093378;28;20455;-38
2022/02/05 11:08:53;;;;;;;1.47;0.97;;;7.40;99.90;;;;;;5094624;28;20436;-40
2022/02/05 11:16:58;;;;;;;5.10;2.10;;;7.40;99.90;;;;;;5092728;28;20485;-36
2022/02/05 11:19:25;;;;;;;1.47;1.00;;;7.20;99.90;;;;;;5092105;28;20447;-38
2022/02/05 11:21:57;;;;;;;1.60;1.43;;;7.00;99.90;;;;;;5093960;28;20469;-54
2022/02/05 11:24:25;;;;;;;1.60;1.20;;;6.70;99.90;;;;;;5085105;28;20461;-57
2022/02/05 11:26:53;;;;;;;4.30;1.50;;;6.50;99.90;;;;;;5083811;28;20449;-51
2022/02/05 11:29:32;;;;;;;4.90;2.13;;;6.30;99.90;;;;;;5076604;28;20444;-56
2022/02/05 11:32:22;;;;;;;1.80;1.37;;;6.20;99.90;;;;;;5076950;28;20450;-59
2022/02/05 11:35:06;;;;;;;3.60;1.63;;;6.10;99.90;;;;;;5091557;28;20454;-49
2022/02/05 11:37:53;;;;;;;10.17;1.33;;;6.00;99.90;;;;;;5096395;28;20470;-58
2022/02/05 11:40:44;;;;;;;1.63;1.10;;;5.90;99.90;;;;;;5096254;28;20444;-61
2022/02/05 11:43:20;;;;;;;7.20;2.47;;;5.90;99.90;;;;;;5096090;28;20432;-53
2022/02/05 11:46:10;;;;;;;8.83;1.60;;;5.80;99.90;;;;;;5096602;28;20446;-51
2022/02/05 11:48:45;;;;;;;10.03;2.10;;;5.80;99.90;;;;;;5095769;28;20489;-56
2022/02/05 11:51:14;;;;;;;10.60;2.10;;;5.70;99.90;;;;;;5096160;28;20470;-52
2022/02/05 11:54:14;;;;;;;3.80;2.00;;;5.80;99.90;;;;;;5096020;28;20454;-46
2022/02/05 11:56:51;;;;;;;4.27;1.70;;;5.80;99.90;;;;;;5096139;28;20494;-55
2022/02/05 11:59:19;;;;;;;4.40;1.10;;;6.00;99.90;;;;;;5095450;28;20477;-51
2022/02/05 12:01:46;;;;;;;7.17;1.83;;;5.90;99.90;;;;;;5095406;28;20469;-50
2022/02/05 12:04:16;;;;;;;2.63;1.83;;;6.00;99.90;;;;;;5095303;28;20459;-55
2022/02/05 12:06:48;;;;;;;3.63;1.60;;;6.30;99.90;;;;;;5095336;28;20463;-54
2022/02/05 12:09:41;;;;;;;2.83;1.50;;;6.20;99.90;;;;;;5094908;28;20483;-55
2022/02/05 12:12:45;;;;;;;9.80;1.47;;;6.30;99.90;;;;;;5095716;28;20463;-50
2022/02/05 12:15:26;;;;;;;8.23;1.40;;;6.40;99.90;;;;;;5095638;28;20438;-55
2022/02/05 12:18:17;;;;;;;5.50;2.13;;;6.50;99.90;;;;;;5095222;28;20490;-54
2022/02/05 12:21:12;;;;;;;3.23;2.30;;;6.50;99.90;;;;;;5095627;28;20424;-52
2022/02/05 12:30:40;;;;;;;6.83;1.33;;;6.60;99.90;;;;;;5085541;28;20468;-51
2022/02/05 12:33:09;;;;;;;3.67;1.70;;;6.70;99.90;;;;;;5095819;28;20453;-51
2022/02/05 12:35:37;;;;;;;5.13;2.27;;;6.90;99.90;;;;;;5095808;28;20518;-56
2022/02/05 12:38:06;;;;;;;3.77;1.87;;;6.90;99.90;;;;;;5095365;28;20468;-53
2022/02/05 12:40:43;;;;;;;4.23;1.83;;;7.00;99.90;;;;;;5095160;28;20440;-48
2022/02/05 12:43:14;;;;;;;4.87;1.70;;;7.10;99.90;;;;;;5095628;28;20510;-56
2022/02/05 12:45:52;;;;;;;7.00;1.57;;;7.20;99.90;;;;;;5095659;28;21016;-48
2022/02/05 12:48:21;;;;;;;2.57;1.17;;;7.10;99.90;;;;;;5095606;28;20482;-51
2022/02/05 12:50:49;;;;;;;6.37;0.93;;;7.00;99.90;;;;;;5095133;28;20485;-47
2022/02/05 12:53:17;;;;;;;0.97;0.80;;;6.80;99.90;;;;;;5094919;28;20477;-52
2022/02/05 12:55:47;;;;;;;2.30;0.90;;;6.80;99.90;;;;;;5095395;28;20426;-56
2022/02/05 12:58:18;;;;;;;6.17;1.20;;;6.80;99.90;;;;;;5095514;28;20451;-53
2022/02/05 13:00:46;;;;;;;6.97;1.40;;;6.80;99.90;;;;;;5097404;28;20469;-51
2022/02/05 13:03:26;;;;;;;10.23;2.63;;;6.80;99.90;;;;;;5099540;28;20438;-53
2022/02/05 13:05:53;;;;;;;3.30;1.23;;;6.80;99.90;;;;;;5099366;28;20429;-49
2022/02/05 13:08:20;;;;;;;3.40;1.07;;;6.80;99.90;;;;;;5099154;28;20546;-52
2022/02/05 13:10:49;;;;;;;5.67;1.53;;;6.80;99.90;;;;;;5098947;28;20494;-57
2022/02/05 13:13:15;;;;;;;1.57;0.93;;;6.70;99.90;;;;;;5099181;28;20468;-51
2022/02/05 13:15:42;;;;;;;1.93;1.27;;;6.60;99.90;;;;;;5099478;28;20449;-55
2022/02/05 13:18:22;;;;;;;4.53;1.07;;;6.60;99.90;;;;;;5099019;28;20474;-56
2022/02/05 13:26:25;;;;;;;4.33;1.60;;;6.60;99.90;;;;;;5099031;28;20487;-55
2022/02/05 13:29:17;;;;;;;4.23;1.23;;;6.60;99.90;;;;;;5098744;28;20438;-50
2022/02/05 13:34:36;;;;;;;6.80;1.80;;;6.60;99.90;;;;;;5099198;28;20442;-57
2022/02/05 13:37:14;;;;;;;2.10;1.50;;;6.60;99.90;;;;;;5098785;28;20496;-56
2022/02/05 13:39:50;;;;;;;1.10;0.70;;;6.70;99.90;;;;;;5098252;28;20461;-54
2022/02/05 13:42:20;;;;;;;5.17;1.37;;;6.70;99.90;;;;;;5098271;28;20431;-46
2022/02/05 13:44:56;;;;;;;1.40;1.23;;;6.60;99.90;;;;;;5098605;28;20436;-52
2022/02/05 13:47:26;;;;;;;5.70;2.00;;;6.60;99.90;;;;;;5098144;28;20489;-50
2022/02/05 13:50:06;;;;;;;2.50;1.30;;;6.60;99.90;;;;;;5097958;28;20465;-49
2022/02/05 13:52:36;;;;;;;1.63;0.90;;;6.70;99.90;;;;;;5097773;28;20410;-56
2022/02/05 13:55:11;;;;;;;5.10;1.37;;;6.70;99.90;;;;;;5097852;28;20441;-51
2022/02/05 13:57:51;;;;;;;5.50;1.60;;;6.80;99.90;;;;;;5098133;28;20510;-47
2022/02/05 14:00:18;;;;;;;3.40;2.10;;;6.90;99.90;;;;;;5097422;28;20443;-55
2022/02/05 14:02:45;;;;;;;4.13;1.30;;;6.90;99.90;;;;;;5097656;28;20493;-52
2022/02/05 14:05:15;;;;;;;3.97;1.20;;;6.80;99.90;;;;;;5097715;28;20436;-51
2022/02/05 14:07:45;;;;;;;4.93;2.00;;;6.70;99.90;;;;;;5097475;28;20428;-52
2022/02/05 14:10:14;;;;;;;2.53;1.20;;;6.70;99.90;;;;;;5097227;28;20765;-52
2022/02/05 14:12:48;;;;;;;6.20;1.40;;;6.70;99.90;;;;;;5096734;28;20439;-55
2022/02/05 14:15:15;;;;;;;3.53;1.13;;;6.70;99.90;;;;;;5097723;28;20496;-58
2022/02/05 14:17:42;;;;;;;4.00;1.20;;;6.60;99.90;;;;;;5097166;28;20451;-55
2022/02/05 14:20:15;;;;;;;7.07;1.73;;;6.60;99.90;;;;;;5097437;28;21017;-57
2022/02/05 14:22:48;;;;;;;1.17;1.07;;;6.60;99.90;;;;;;5097713;28;20425;-54
2022/02/05 14:25:19;;;;;;;2.57;1.93;;;6.70;99.90;;;;;;5097553;28;20427;-49
2022/02/05 14:28:08;;;;;;;1.60;1.10;;;6.70;99.90;;;;;;5097007;28;20504;-54
2022/02/05 14:30:37;;;;;;;5.63;1.20;;;6.70;99.90;;;;;;5096972;28;20496;-54
2022/02/05 14:33:08;;;;;;;4.90;1.17;;;6.60;99.90;;;;;;5096992;28;20460;-53
2022/02/05 14:41:05;;;;;;;4.57;1.37;;;6.60;99.90;;;;;;5097028;28;20494;-54
2022/02/05 14:43:32;;;;;;;2.40;1.50;;;6.60;99.90;;;;;;5096618;28;20487;-57
2022/02/05 14:45:59;;;;;;;2.03;1.30;;;6.60;99.90;;;;;;5096871;28;20439;-56
2022/02/05 14:48:26;;;;;;;4.40;1.37;;;6.60;99.90;;;;;;5097204;28;20449;-51
2022/02/05 14:50:54;;;;;;;5.90;1.30;;;6.70;99.90;;;;;;5096612;28;20480;-51
2022/02/05 14:53:20;;;;;;;4.20;1.10;;;6.70;99.90;;;;;;5097436;28;20429;-56
2022/02/05 14:55:47;;;;;;;7.53;1.40;;;6.70;99.90;;;;;;5097561;28;20466;-49
2022/02/05 14:58:14;;;;;;;3.83;0.93;;;6.70;99.90;;;;;;5096551;28;20483;-51
2022/02/05 15:00:41;;;;;;;1.50;1.10;;;6.70;99.90;;;;;;5096911;28;20469;-57